Cratis — C6BV3 — position and weather

sailwx.info

Track history (hours):
 
Tides and Currents Weather Stations Pressure Air Temp Water Temp Dewpoint Dewpoint Depression Visibility Wind Speed Wind Dir Waves Ship Positions

Cratis

Last reported at 2018-Feb-18 16:10 UTC. Time now 2018-Feb-19 00:02 UTC.
Position S 38°33' E 148°36'.

Length 226 m; draft 8 m.

Type: Tanker. MMSI: 311000374.

Date/timePositionNaut miles runAvg speedWind from/ knotsBaromVisibWave heightAir tempDewpointWater temp
2018-Feb-18 16:10S 38°33' E 148°36'714.2
2018-Feb-18 15:39S 38°30' E 148°44'214.2
2018-Feb-18 15:29S 38°29' E 148°47'714.0
2018-Feb-18 14:58S 38°26' E 148°55'814.1
2018-Feb-18 14:26S 38°23' E 149°04'614.1
2018-Feb-18 13:59S 38°20' E 149°11'814.4
2018-Feb-18 13:27S 38°17' E 149°20'2114.4
2018-Feb-18 11:59S 38°07' E 149°44'714.0
2018-Feb-18 11:30S 38°04' E 149°52'814.0
2018-Feb-18 10:57S 38°01' E 150°00'813.9
2018-Feb-18 10:21S 37°57' E 150°10'713.5
2018-Feb-18 09:49S 37°54' E 150°18'24114.4
2018-Feb-17 17:06S 36°10' E 154°50'113.9
2018-Feb-17 17:00S 36°09' E 154°51'1613.9
2018-Feb-17 15:53S 36°02' E 155°08'128 3.8
2018-Feb-16 05:46S 33°58' E 155°49'518.8
2018-Feb-16 05:30S 33°58' E 155°43'1018.9
2018-Feb-16 04:59S 33°58' E 155°31'919.1
2018-Feb-16 04:30S 33°59' E 155°20'9019.0
2018-Feb-15 23:46S 33°60' E 153°32'1416.4
2018-Feb-15 22:55S 33°59' E 153°15'716.2
2018-Feb-15 22:30S 33°60' E 153°07'1416.2
2018-Feb-15 21:38S 33°60' E 152°50'215.7
2018-Feb-15 21:30S 33°60' E 152°48'816.4
2018-Feb-15 21:00S 33°60' E 152°38'1316.3
2018-Feb-15 20:12S 34°01' E 152°22'316.7
2018-Feb-15 20:00S 34°01' E 152°18'816.7
2018-Feb-15 19:30S 34°02' E 152°08'816.4
2018-Feb-15 19:00S 34°04' E 151°58'815.5
2018-Feb-15 18:30S 34°04' E 151°49'510.7
2018-Feb-15 18:00S 34°04' E 151°43'3 6.3
2018-Feb-15 17:30S 34°03' E 151°39'815.9
2018-Feb-15 17:00S 34°03' E 151°29'  
2018-Feb-10 19:20S 34°14' E 151°06'0 0.2
2018-Feb-10 18:47S 34°14' E 151°06'0 0.2
2018-Feb-10 18:29S 34°14' E 151°06'0 0.1
2018-Feb-10 17:35S 34°14' E 151°06'0 0.1
2018-Feb-10 17:29S 34°14' E 151°06'0 0.1
2018-Feb-10 16:59S 34°14' E 151°06'0 0.1
2018-Feb-10 16:29S 34°14' E 151°06'0 0.2
2018-Feb-10 15:59S 34°14' E 151°06'0 0.0
2018-Feb-10 15:29S 34°14' E 151°06'0 0.0
2018-Feb-10 10:05S 34°14' E 151°06'0 0.1
2018-Feb-10 09:53S 34°14' E 151°06'0 0.0
2018-Feb-10 09:29S 34°14' E 151°06'0 0.0
2018-Feb-10 06:08S 34°14' E 151°06'0 0.3
2018-Feb-10 05:59S 34°14' E 151°06'0 0.0
2018-Feb-10 04:53S 34°14' E 151°06'0 0.0
2018-Feb-10 04:29S 34°14' E 151°06'  
Track history (hours):
 
Tides and Currents Weather Stations Pressure Air Temp Water Temp Dewpoint Dewpoint Depression Visibility Wind Speed Wind Dir Waves Ship Positions

Cratis

Last reported at 2018-Feb-18 16:10 UTC. Time now 2018-Feb-19 00:02 UTC.
Position S 38°33' E 148°36'.

Length 226 m; draft 8 m.

Type: Tanker. MMSI: 311000374.

Date/timePositionNaut miles runAvg speedWind from/ knotsBaromVisibWave heightAir tempDewpointWater temp
2018-Feb-18 16:10S 38°33' E 148°36'714.2
2018-Feb-18 15:39S 38°30' E 148°44'214.2
2018-Feb-18 15:29S 38°29' E 148°47'714.0
2018-Feb-18 14:58S 38°26' E 148°55'814.1
2018-Feb-18 14:26S 38°23' E 149°04'614.1
2018-Feb-18 13:59S 38°20' E 149°11'814.4
2018-Feb-18 13:27S 38°17' E 149°20'2114.4
2018-Feb-18 11:59S 38°07' E 149°44'714.0
2018-Feb-18 11:30S 38°04' E 149°52'814.0
2018-Feb-18 10:57S 38°01' E 150°00'813.9
2018-Feb-18 10:21S 37°57' E 150°10'713.5
2018-Feb-18 09:49S 37°54' E 150°18'24114.4
2018-Feb-17 17:06S 36°10' E 154°50'113.9
2018-Feb-17 17:00S 36°09' E 154°51'1613.9
2018-Feb-17 15:53S 36°02' E 155°08'128 3.8
2018-Feb-16 05:46S 33°58' E 155°49'518.8
2018-Feb-16 05:30S 33°58' E 155°43'1018.9
2018-Feb-16 04:59S 33°58' E 155°31'919.1
2018-Feb-16 04:30S 33°59' E 155°20'9019.0
2018-Feb-15 23:46S 33°60' E 153°32'1416.4
2018-Feb-15 22:55S 33°59' E 153°15'716.2
2018-Feb-15 22:30S 33°60' E 153°07'1416.2
2018-Feb-15 21:38S 33°60' E 152°50'215.7
2018-Feb-15 21:30S 33°60' E 152°48'816.4
2018-Feb-15 21:00S 33°60' E 152°38'1316.3
2018-Feb-15 20:12S 34°01' E 152°22'316.7
2018-Feb-15 20:00S 34°01' E 152°18'816.7
2018-Feb-15 19:30S 34°02' E 152°08'816.4
2018-Feb-15 19:00S 34°04' E 151°58'815.5
2018-Feb-15 18:30S 34°04' E 151°49'510.7
2018-Feb-15 18:00S 34°04' E 151°43'3 6.3
2018-Feb-15 17:30S 34°03' E 151°39'815.9
2018-Feb-15 17:00S 34°03' E 151°29'  
2018-Feb-10 19:20S 34°14' E 151°06'0 0.2
2018-Feb-10 18:47S 34°14' E 151°06'0 0.2
2018-Feb-10 18:29S 34°14' E 151°06'0 0.1
2018-Feb-10 17:35S 34°14' E 151°06'0 0.1
2018-Feb-10 17:29S 34°14' E 151°06'0 0.1
2018-Feb-10 16:59S 34°14' E 151°06'0 0.1
2018-Feb-10 16:29S 34°14' E 151°06'0 0.2
2018-Feb-10 15:59S 34°14' E 151°06'0 0.0
2018-Feb-10 15:29S 34°14' E 151°06'0 0.0
2018-Feb-10 10:05S 34°14' E 151°06'0 0.1
2018-Feb-10 09:53S 34°14' E 151°06'0 0.0
2018-Feb-10 09:29S 34°14' E 151°06'0 0.0
2018-Feb-10 06:08S 34°14' E 151°06'0 0.3
2018-Feb-10 05:59S 34°14' E 151°06'0 0.0
2018-Feb-10 04:53S 34°14' E 151°06'0 0.0
2018-Feb-10 04:29S 34°14' E 151°06'  

Dump ship's entire track history